createdAt,value
2018-02-18T00:01:37.736Z,98973.64
2018-02-18T00:04:06.064Z,98977.42
2018-02-18T00:06:34.388Z,98974.72
2018-02-18T00:09:02.840Z,98983.55
2018-02-18T00:11:32.315Z,98979.25
2018-02-18T00:14:00.637Z,98987.22
2018-02-18T00:16:29.044Z,98990.04
2018-02-18T00:18:57.377Z,98991.83
2018-02-18T00:21:26.049Z,98992.74
2018-02-18T00:23:54.460Z,98990.86
2018-02-18T00:26:22.793Z,98990.23
2018-02-18T00:28:51.168Z,98997.38
2018-02-18T00:31:19.492Z,99005.34
2018-02-18T00:33:47.815Z,98999.94
2018-02-18T00:36:16.920Z,99001.59
2018-02-18T00:38:45.220Z,98996.19
2018-02-18T00:41:13.592Z,99003.39
2018-02-18T00:43:42.691Z,99002.73
2018-02-18T00:46:11.780Z,99010.10
2018-02-18T00:48:41.097Z,99008.66
2018-02-18T00:51:09.441Z,99007.28
2018-02-18T00:53:38.410Z,99010.62
2018-02-18T00:56:08.932Z,99014.26
2018-02-18T00:58:37.772Z,99013.86
2018-02-18T01:01:06.096Z,99008.73
2018-02-18T01:03:34.456Z,99015.25
2018-02-18T01:06:02.882Z,99018.80
2018-02-18T01:08:32.559Z,99018.61
2018-02-18T01:11:01.012Z,99018.95
2018-02-18T01:13:29.342Z,99018.11
2018-02-18T01:15:57.721Z,99020.93
2018-02-18T01:18:26.048Z,99024.02
2018-02-18T01:20:54.388Z,99029.89
2018-02-18T01:23:23.808Z,99031.72
2018-02-18T01:25:52.353Z,99030.89
2018-02-18T01:28:20.643Z,99029.56
2018-02-18T01:30:49.029Z,99031.15
2018-02-18T01:33:18.116Z,99037.72
2018-02-18T01:35:46.444Z,99033.37
2018-02-18T01:38:14.798Z,99043.34
2018-02-18T01:40:43.125Z,99039.56
2018-02-18T01:43:11.440Z,99041.70
2018-02-18T01:45:39.789Z,99046.20
2018-02-18T01:48:08.113Z,99039.77
2018-02-18T01:50:38.940Z,99041.67
2018-02-18T01:53:07.270Z,99041.88
2018-02-18T01:55:35.595Z,99044.89
2018-02-18T01:58:04.596Z,99044.84
2018-02-18T02:00:32.920Z,99048.93
2018-02-18T02:03:01.244Z,99048.73
2018-02-18T02:05:30.060Z,99048.34
2018-02-18T02:07:58.382Z,99045.92
2018-02-18T02:10:26.708Z,99050.50
2018-02-18T02:12:55.083Z,99051.75
2018-02-18T02:15:23.422Z,99046.70
2018-02-18T02:17:52.355Z,99045.49
2018-02-18T02:20:20.720Z,99048.61
2018-02-18T02:22:49.046Z,99055.22
2018-02-18T02:25:17.416Z,99052.34
2018-02-18T02:27:45.755Z,99060.74
2018-02-18T02:30:14.086Z,99058.58
2018-02-18T02:32:43.212Z,99061.02
2018-02-18T02:35:11.805Z,99058.25
2018-02-18T02:37:40.183Z,99055.38
2018-02-18T02:40:08.564Z,99055.08
2018-02-18T02:42:37.428Z,99054.86
2018-02-18T02:45:05.739Z,99057.42
2018-02-18T02:47:34.137Z,99058.02
2018-02-18T02:50:02.472Z,99061.17
2018-02-18T02:52:30.845Z,99057.05
2018-02-18T02:54:59.171Z,99058.35
2018-02-18T02:57:27.548Z,99054.34
2018-02-18T02:59:56.429Z,99057.16
2018-02-18T03:02:24.758Z,99059.41
2018-02-18T03:04:53.091Z,99056.13
2018-02-18T03:07:21.457Z,99055.92
2018-02-18T03:09:50.324Z,99061.61
2018-02-18T03:12:18.648Z,99059.80
2018-02-18T03:14:48.356Z,99062.63
2018-02-18T03:17:17.486Z,99068.38
2018-02-18T03:19:45.958Z,99071.31
2018-02-18T03:22:14.336Z,99067.05
2018-02-18T03:24:43.337Z,99071.98
2018-02-18T03:27:19.744Z,99067.23
2018-02-18T03:29:48.086Z,99074.39
2018-02-18T03:32:16.413Z,99076.73
2018-02-18T03:34:44.884Z,99063.53
2018-02-18T03:37:14.758Z,99067.98
2018-02-18T03:39:43.088Z,99071.15
2018-02-18T03:42:12.225Z,99067.53
2018-02-18T03:44:41.012Z,99068.33
2018-02-18T03:47:09.335Z,99062.98
2018-02-18T03:49:37.697Z,99066.73
2018-02-18T03:52:06.028Z,99057.47
2018-02-18T03:54:34.384Z,99067.12
2018-02-18T03:57:03.476Z,99064.55
2018-02-18T03:59:33.075Z,99069.07
2018-02-18T04:02:01.430Z,99065.16
2018-02-18T04:04:29.754Z,99063.30
2018-02-18T04:06:58.133Z,99070.86
2018-02-18T04:09:26.465Z,99070.81
2018-02-18T04:11:54.791Z,99070.16
2018-02-18T04:14:23.917Z,99075.75
2018-02-18T04:16:52.245Z,99073.54
2018-02-18T04:19:21.748Z,99071.32
2018-02-18T04:21:50.092Z,99071.39
2018-02-18T04:24:18.560Z,99072.58
2018-02-18T04:26:47.182Z,99078.89
2018-02-18T04:29:15.776Z,99077.84
2018-02-18T04:31:45.111Z,99076.32
2018-02-18T04:34:13.455Z,99077.84
2018-02-18T04:36:41.896Z,99078.14
2018-02-18T04:39:10.229Z,99082.22
2018-02-18T04:41:38.555Z,99068.16
2018-02-18T04:44:07.113Z,99072.77
2018-02-18T04:46:35.913Z,99079.23
2018-02-18T04:49:04.373Z,99086.84
2018-02-18T04:51:32.705Z,99085.42
2018-02-18T04:54:01.076Z,99089.18
2018-02-18T04:56:29.413Z,99087.53
2018-02-18T04:58:57.749Z,99086.01
2018-02-18T05:01:26.890Z,99085.39
2018-02-18T05:03:55.250Z,99087.44
2018-02-18T05:06:23.593Z,99087.13
2018-02-18T05:08:51.957Z,99089.14
2018-02-18T05:11:20.289Z,99091.48
2018-02-18T05:13:48.695Z,99101.55
2018-02-18T05:16:17.024Z,99098.38
2018-02-18T05:18:45.365Z,99092.98
2018-02-18T05:21:13.728Z,99099.00
2018-02-18T05:23:42.059Z,99095.16
2018-02-18T05:26:10.396Z,99098.33
2018-02-18T05:28:39.057Z,99101.50
2018-02-18T05:31:08.712Z,99098.81
2018-02-18T05:33:37.072Z,99103.68
2018-02-18T05:36:05.428Z,99106.66
2018-02-18T05:38:35.114Z,99113.34
2018-02-18T05:41:03.448Z,99113.34
2018-02-18T05:43:31.829Z,99119.47
2018-02-18T05:46:00.149Z,99118.88
2018-02-18T05:48:28.476Z,99118.94
2018-02-18T05:50:56.847Z,99119.06
2018-02-18T05:53:25.204Z,99125.72
2018-02-18T05:55:53.541Z,99130.20
2018-02-18T05:58:21.906Z,99128.88
2018-02-18T06:00:50.245Z,99132.64
2018-02-18T06:03:18.622Z,99130.98
2018-02-18T06:05:46.956Z,99136.05
2018-02-18T06:08:16.043Z,99139.13
2018-02-18T06:10:44.828Z,99135.39
2018-02-18T06:13:18.960Z,99148.70
2018-02-18T06:15:47.412Z,99142.38
2018-02-18T06:18:16.227Z,99147.49
2018-02-18T06:20:44.548Z,99150.30
2018-02-18T06:23:12.920Z,99144.85
2018-02-18T06:25:41.353Z,99150.38
2018-02-18T06:28:11.005Z,99154.56
2018-02-18T06:30:39.328Z,99160.66
2018-02-18T06:33:08.344Z,99157.44
2018-02-18T06:35:36.674Z,99160.91
2018-02-18T06:38:05.008Z,99156.15
2018-02-18T06:40:33.721Z,99160.07
2018-02-18T06:43:02.414Z,99156.06
2018-02-18T06:45:30.752Z,99161.64
2018-02-18T06:47:59.123Z,99161.58
2018-02-18T06:50:28.225Z,99160.17
2018-02-18T06:52:57.866Z,99166.31
2018-02-18T06:55:26.215Z,99162.09
2018-02-18T06:57:55.312Z,99162.30
2018-02-18T07:00:24.457Z,99159.66
2018-02-18T07:02:52.783Z,99162.02
2018-02-18T07:05:21.118Z,99161.38
2018-02-18T07:07:49.489Z,99162.55
2018-02-18T07:10:18.591Z,99166.28
2018-02-18T07:12:46.932Z,99172.27
2018-02-18T07:15:15.285Z,99174.06
2018-02-18T07:17:43.644Z,99170.98
2018-02-18T07:20:11.969Z,99168.74
2018-02-18T07:22:41.127Z,99175.23
2018-02-18T07:25:09.778Z,99163.23
2018-02-18T07:27:38.108Z,99164.17
2018-02-18T07:30:07.297Z,99159.59
2018-02-18T07:32:36.577Z,99166.20
2018-02-18T07:35:06.953Z,99164.11
2018-02-18T07:37:35.810Z,99173.27
2018-02-18T07:40:04.144Z,99175.43
2018-02-18T07:42:32.745Z,99177.39
2018-02-18T07:45:01.168Z,99175.27
2018-02-18T07:47:29.560Z,99180.30
2018-02-18T07:49:58.016Z,99167.64
2018-02-18T07:52:26.433Z,99166.02
2018-02-18T07:54:54.793Z,99158.89
2018-02-18T07:57:23.136Z,99154.85
2018-02-18T07:59:51.450Z,99155.92
2018-02-18T08:02:21.752Z,99154.98
2018-02-18T08:04:50.783Z,99155.59
2018-02-18T08:07:19.108Z,99145.83
2018-02-18T08:09:47.512Z,99146.25
2018-02-18T08:12:16.256Z,99146.75
2018-02-18T08:14:45.573Z,99149.69
2018-02-18T08:17:13.940Z,99150.98
2018-02-18T08:19:42.259Z,99153.59
2018-02-18T08:22:10.580Z,99155.53
2018-02-18T08:24:38.925Z,99156.43
2018-02-18T08:27:07.307Z,99159.27
2018-02-18T08:29:35.686Z,99162.09
2018-02-18T08:32:06.200Z,99161.36
2018-02-18T08:34:35.096Z,99163.80
2018-02-18T08:37:03.657Z,99171.20
2018-02-18T08:39:31.995Z,99167.93
2018-02-18T08:42:00.376Z,99163.77
2018-02-18T08:44:28.893Z,99164.55
2018-02-18T08:46:57.206Z,99162.72
2018-02-18T08:49:25.577Z,99163.59
2018-02-18T08:51:53.956Z,99156.11
2018-02-18T08:54:22.272Z,99156.02
2018-02-18T08:56:50.738Z,99162.19
2018-02-18T08:59:19.064Z,99158.78
2018-02-18T09:01:47.377Z,99164.94
2018-02-18T09:04:16.741Z,99164.48
2018-02-18T09:06:45.064Z,99163.25
2018-02-18T09:09:13.378Z,99163.64
2018-02-18T09:11:41.740Z,99164.72
2018-02-18T09:14:10.287Z,99169.97
2018-02-18T09:16:38.602Z,99163.54
2018-02-18T09:19:06.992Z,99158.00
2018-02-18T09:21:35.333Z,99159.86
2018-02-18T09:24:03.663Z,99165.36
2018-02-18T09:26:32.032Z,99161.42
2018-02-18T09:29:01.464Z,99162.27
2018-02-18T09:31:30.464Z,99170.87
2018-02-18T09:33:58.806Z,99161.13
2018-02-18T09:36:27.120Z,99161.66
2018-02-18T09:38:55.516Z,99164.50
2018-02-18T09:41:23.854Z,99166.12
2018-02-18T09:43:52.168Z,99167.44
2018-02-18T09:46:21.288Z,99169.22
2018-02-18T09:48:49.598Z,99174.19
2018-02-18T09:51:17.928Z,99176.04
2018-02-18T09:53:47.311Z,99171.40
2018-02-18T09:56:15.703Z,99173.42
2018-02-18T09:58:44.076Z,99170.67
2018-02-18T10:01:12.646Z,99173.48
2018-02-18T10:03:41.000Z,99172.95
2018-02-18T10:06:09.800Z,99170.97
2018-02-18T10:08:51.302Z,99167.97
2018-02-18T10:11:20.134Z,99168.11
2018-02-18T10:13:48.604Z,99170.09
2018-02-18T10:16:17.447Z,99158.98
2018-02-18T10:18:45.747Z,99163.66
2018-02-18T10:21:14.064Z,99167.70
2018-02-18T10:23:43.146Z,99165.33
2018-02-18T10:26:11.454Z,99171.64
2018-02-18T10:28:40.394Z,99164.61
2018-02-18T10:31:08.800Z,99159.87
2018-02-18T10:33:37.124Z,99155.75
2018-02-18T10:36:05.433Z,99156.66
2018-02-18T10:38:34.396Z,99153.96
2018-02-18T10:41:02.704Z,99152.67
2018-02-18T10:43:31.601Z,99149.45
2018-02-18T10:46:00.194Z,99152.08
2018-02-18T10:48:31.445Z,99144.28
2018-02-18T10:50:59.759Z,99147.17
2018-02-18T10:53:28.110Z,99142.72
2018-02-18T10:55:56.437Z,99135.11
2018-02-18T10:58:24.961Z,99142.25
2018-02-18T11:00:53.288Z,99133.78
2018-02-18T11:03:25.560Z,99136.34
2018-02-18T11:05:54.141Z,99132.11
2018-02-18T11:08:22.452Z,99135.94
2018-02-18T11:10:50.884Z,99136.88
2018-02-18T11:13:19.974Z,99135.20
2018-02-18T11:15:49.212Z,99137.69
2018-02-18T11:18:17.789Z,99141.67
2018-02-18T11:20:48.903Z,99130.58
2018-02-18T11:23:17.461Z,99130.80
2018-02-18T11:25:45.782Z,99122.78
2018-02-18T11:28:14.111Z,99122.30
2018-02-18T11:30:42.513Z,99126.70
2018-02-18T11:33:11.292Z,99120.87
2018-02-18T11:35:40.225Z,99119.28
2018-02-18T11:38:08.584Z,99117.45
2018-02-18T11:40:37.620Z,99111.30
2018-02-18T11:43:06.471Z,99111.22
2018-02-18T11:45:35.879Z,99110.09
2018-02-18T11:48:04.453Z,99115.00
2018-02-18T11:50:37.356Z,99116.69
2018-02-18T11:53:06.891Z,99117.14
2018-02-18T11:55:35.356Z,99109.28
2018-02-18T11:58:03.673Z,99112.84
2018-02-18T12:00:32.388Z,99113.97
2018-02-18T12:03:00.761Z,99113.84
2018-02-18T12:05:30.805Z,99109.36
2018-02-18T12:07:59.185Z,99113.06
2018-02-18T12:10:27.552Z,99106.94
2018-02-18T12:12:55.911Z,99108.80
2018-02-18T12:15:24.223Z,99111.27
2018-02-18T12:17:52.573Z,99110.02
2018-02-18T12:20:20.884Z,99103.87
2018-02-18T12:25:23.767Z,99101.61
2018-02-18T12:27:52.116Z,99102.55
2018-02-18T12:30:20.432Z,99105.05
2018-02-18T12:32:48.805Z,99102.12
2018-02-18T12:35:17.792Z,99101.16
2018-02-18T12:37:46.141Z,99095.47
2018-02-18T12:40:14.457Z,99093.11
2018-02-18T12:42:42.008Z,99092.66
2018-02-18T12:45:10.601Z,99089.30
2018-02-18T12:47:40.077Z,99088.91
2018-02-18T12:50:08.402Z,99092.41
2018-02-18T12:52:36.711Z,99085.93
2018-02-18T12:55:05.056Z,99090.64
2018-02-18T12:57:33.813Z,99085.23
2018-02-18T13:00:02.168Z,99084.81
2018-02-18T13:02:30.529Z,99083.11
2018-02-18T13:04:58.840Z,99088.20
2018-02-18T13:07:27.189Z,99080.31
2018-02-18T13:09:55.503Z,99078.07
2018-02-18T13:12:24.610Z,99068.76
2018-02-18T13:14:52.984Z,99071.61
2018-02-18T13:17:21.311Z,99071.11
2018-02-18T13:19:49.753Z,99064.48
2018-02-18T13:22:19.970Z,99063.05
2018-02-18T13:24:48.290Z,99071.00
2018-02-18T13:27:16.604Z,99073.02
2018-02-18T13:29:45.665Z,99072.31
2018-02-18T13:32:13.974Z,99076.47
2018-02-18T13:34:42.305Z,99071.08
2018-02-18T13:37:11.118Z,99074.58
2018-02-18T13:39:39.426Z,99077.13
2018-02-18T13:42:07.816Z,99075.61
2018-02-18T13:44:36.186Z,99077.02
2018-02-18T13:47:05.072Z,99072.88
2018-02-18T13:49:33.617Z,99072.94
2018-02-18T13:52:02.588Z,99072.77
2018-02-18T13:54:31.059Z,99071.04
2018-02-18T13:56:59.400Z,99067.58
2018-02-18T13:59:27.721Z,99065.81
2018-02-18T14:01:56.029Z,99065.38
2018-02-18T14:04:24.436Z,99069.20
2018-02-18T14:06:52.804Z,99068.09
2018-02-18T14:09:21.252Z,99068.69
2018-02-18T14:11:50.540Z,99068.78
2018-02-18T14:14:19.675Z,99065.31
2018-02-18T14:16:47.988Z,99069.95
2018-02-18T14:19:16.303Z,99071.12
2018-02-18T14:21:44.656Z,99066.17
2018-02-18T14:24:12.976Z,99070.41
2018-02-18T14:26:41.369Z,99073.47
2018-02-18T14:29:09.681Z,99077.64
2018-02-18T14:31:40.231Z,99080.65
2018-02-18T14:34:08.593Z,99077.39
2018-02-18T14:36:36.978Z,99078.87
2018-02-18T14:39:06.057Z,99072.26
2018-02-18T14:41:52.881Z,99068.92
2018-02-18T14:44:38.730Z,99067.42
2018-02-18T14:47:24.592Z,99067.48
2018-02-18T14:50:10.462Z,99068.30
2018-02-18T14:52:56.459Z,99068.70
2018-02-18T14:55:42.996Z,99065.95
2018-02-18T14:58:11.719Z,99063.27
2018-02-18T15:00:40.437Z,99070.89
2018-02-18T15:03:08.757Z,99067.57
2018-02-18T15:05:37.157Z,99068.89
2018-02-18T15:08:05.483Z,99078.05
2018-02-18T15:10:33.791Z,99068.41
2018-02-18T15:13:02.182Z,99069.78
2018-02-18T15:15:30.805Z,99075.38
2018-02-18T15:17:59.701Z,99065.70
2018-02-18T15:20:28.248Z,99067.31
2018-02-18T15:22:56.560Z,99066.63
2018-02-18T15:25:24.893Z,99059.75
2018-02-18T15:27:53.664Z,99061.92
2018-02-18T15:30:22.000Z,99061.05
2018-02-18T15:32:50.335Z,99062.80
2018-02-18T15:35:18.702Z,99070.22
2018-02-18T15:37:47.044Z,99064.95
2018-02-18T15:40:16.157Z,99064.27
2018-02-18T15:42:44.585Z,99060.58
2018-02-18T15:45:12.996Z,99067.05
2018-02-18T15:47:41.555Z,99062.33
2018-02-18T15:50:10.276Z,99059.93
2018-02-18T15:52:39.987Z,99056.19
2018-02-18T15:55:08.597Z,99050.88
2018-02-18T15:57:37.038Z,99051.31
2018-02-18T16:00:05.371Z,99055.89
2018-02-18T16:02:33.740Z,99049.94
2018-02-18T16:05:02.701Z,99050.44
2018-02-18T16:07:31.061Z,99049.69
2018-02-18T16:09:59.422Z,99050.80
2018-02-18T16:12:27.851Z,99051.44
2018-02-18T16:14:56.210Z,99050.36
2018-02-18T16:17:24.566Z,99048.19
2018-02-18T16:19:52.974Z,99042.92
2018-02-18T16:22:21.308Z,99039.52
2018-02-18T16:24:49.715Z,99042.96
2018-02-18T16:27:18.166Z,99043.27
2018-02-18T16:29:46.526Z,99040.67
2018-02-18T16:32:14.876Z,99039.06
2018-02-18T16:34:44.188Z,99034.00
2018-02-18T16:37:12.542Z,99031.90
2018-02-18T16:39:40.898Z,99033.09
2018-02-18T16:42:09.304Z,99031.70
2018-02-18T16:44:37.650Z,99024.31
2018-02-18T16:47:06.033Z,99019.80
2018-02-18T16:49:34.430Z,99021.80
2018-02-18T16:52:03.370Z,99029.96
2018-02-18T16:54:32.465Z,99035.08
2018-02-18T16:57:00.871Z,99037.34
2018-02-18T16:59:29.986Z,99037.91
2018-02-18T17:01:58.313Z,99033.68
2018-02-18T17:04:28.686Z,99039.28
2018-02-18T17:06:57.001Z,99041.23
2018-02-18T17:09:25.337Z,99045.01
2018-02-18T17:11:53.745Z,99042.23
2018-02-18T17:14:22.074Z,99042.23
2018-02-18T17:16:50.302Z,99041.89
2018-02-18T17:19:18.673Z,99048.05
2018-02-18T17:21:47.005Z,99044.74
2018-02-18T17:24:16.849Z,99043.84
2018-02-18T17:26:47.161Z,99040.48
2018-02-18T17:29:15.853Z,99042.03
2018-02-18T17:31:45.297Z,99042.66
2018-02-18T17:34:14.385Z,99042.95
2018-02-18T17:36:43.456Z,99039.63
2018-02-18T17:39:12.566Z,99037.14
2018-02-18T17:41:41.737Z,99038.58
2018-02-18T17:44:10.051Z,99043.23
2018-02-18T17:46:38.404Z,99040.26
2018-02-18T17:49:06.773Z,99035.25
2018-02-18T17:51:35.265Z,99040.05
2018-02-18T17:54:03.592Z,99037.52
2018-02-18T17:56:31.960Z,99047.12
2018-02-18T17:59:00.681Z,99042.56
2018-02-18T18:01:28.986Z,99042.94
2018-02-18T18:03:57.401Z,99040.39
2018-02-18T18:06:25.723Z,99044.36
2018-02-18T18:08:54.801Z,99043.67
2018-02-18T18:11:23.321Z,99032.00
2018-02-18T18:13:52.855Z,99032.45
2018-02-18T18:16:21.182Z,99029.90
2018-02-18T18:18:49.852Z,99031.16
2018-02-18T18:21:18.596Z,99024.56
2018-02-18T18:23:46.926Z,99020.06
2018-02-18T18:26:15.299Z,99020.46
2018-02-18T18:28:44.024Z,99015.68
2018-02-18T18:31:12.346Z,99009.63
2018-02-18T18:33:40.724Z,99006.25
2018-02-18T18:36:09.044Z,99001.78
2018-02-18T18:38:38.021Z,99004.31
2018-02-18T18:41:06.383Z,99009.80
2018-02-18T18:43:34.697Z,99011.85
2018-02-18T18:46:03.013Z,99011.27
2018-02-18T18:48:31.380Z,99011.94
2018-02-18T18:51:00.462Z,99007.97
2018-02-18T18:53:29.545Z,99004.22
2018-02-18T18:55:59.120Z,98997.92
2018-02-18T18:58:27.536Z,98999.58
2018-02-18T19:00:55.860Z,98991.41
2018-02-18T19:03:24.292Z,98984.27
2018-02-18T19:05:52.609Z,98978.56
2018-02-18T19:08:20.933Z,98975.47
2018-02-18T19:10:50.944Z,98976.97
2018-02-18T19:15:54.045Z,98972.59
2018-02-18T19:18:22.412Z,98972.16
2018-02-18T19:20:51.721Z,98973.42
2018-02-18T19:23:22.199Z,98969.14
2018-02-18T19:25:50.513Z,98969.10
2018-02-18T19:28:18.828Z,98958.32
2018-02-18T19:30:47.222Z,98959.42
2018-02-18T19:33:15.656Z,98952.73
2018-02-18T19:35:44.660Z,98953.08
2018-02-18T19:38:13.691Z,98945.06
2018-02-18T19:40:42.068Z,98950.31
2018-02-18T19:43:10.401Z,98946.70
2018-02-18T19:45:38.765Z,98948.44
2018-02-18T19:48:07.433Z,98948.97
2018-02-18T19:50:35.749Z,98944.97
2018-02-18T19:53:05.868Z,98947.17
2018-02-18T19:55:34.184Z,98949.91
2018-02-18T19:58:02.845Z,98943.78
2018-02-18T20:00:32.152Z,98941.50
2018-02-18T20:03:00.817Z,98940.23
2018-02-18T20:05:30.524Z,98937.40
2018-02-18T20:07:58.884Z,98933.89
2018-02-18T20:10:28.158Z,98930.58
2018-02-18T20:12:56.484Z,98934.70
2018-02-18T20:15:25.354Z,98930.53
2018-02-18T20:17:54.265Z,98925.51
2018-02-18T20:20:24.724Z,98918.53
2018-02-18T20:22:53.052Z,98923.19
2018-02-18T20:25:21.364Z,98920.02
2018-02-18T20:27:50.010Z,98919.00
2018-02-18T20:30:18.824Z,98917.21
2018-02-18T20:32:48.741Z,98907.45
2018-02-18T20:35:17.520Z,98907.30
2018-02-18T20:37:46.784Z,98898.83
2018-02-18T20:40:15.181Z,98900.26
2018-02-18T20:42:44.082Z,98895.63
2018-02-18T20:45:12.547Z,98891.77
2018-02-18T20:47:41.396Z,98883.45
2018-02-18T20:50:09.712Z,98878.10
2018-02-18T20:52:38.344Z,98881.88
2018-02-18T20:55:06.660Z,98872.45
2018-02-18T20:57:34.980Z,98875.14
2018-02-18T21:00:03.364Z,98863.31
2018-02-18T21:02:31.689Z,98865.48
2018-02-18T21:05:00.018Z,98864.47
2018-02-18T21:07:30.004Z,98865.39
2018-02-18T21:09:58.385Z,98864.36
2018-02-18T21:12:26.908Z,98857.72
2018-02-18T21:14:55.264Z,98860.91
2018-02-18T21:17:24.269Z,98853.84
2018-02-18T21:19:52.589Z,98849.30
2018-02-18T21:22:20.942Z,98844.44
2018-02-18T21:24:49.793Z,98846.98
2018-02-18T21:27:19.037Z,98838.78
2018-02-18T21:29:47.777Z,98835.63
2018-02-18T21:32:16.100Z,98840.59
2018-02-18T21:34:49.580Z,98843.44
2018-02-18T21:37:17.659Z,98844.89
2018-02-18T21:39:45.985Z,98843.91
2018-02-18T21:42:14.403Z,98851.81
2018-02-18T21:44:42.713Z,98852.55
2018-02-18T21:47:11.037Z,98848.91
2018-02-18T21:49:39.392Z,98844.06
2018-02-18T21:52:07.712Z,98846.73
2018-02-18T21:54:36.026Z,98844.46
2018-02-18T21:57:04.756Z,98844.39
2018-02-18T21:59:33.220Z,98843.05
2018-02-18T22:02:01.537Z,98843.48
2018-02-18T22:04:29.905Z,98844.29
2018-02-18T22:06:58.216Z,98839.49
2018-02-18T22:09:28.907Z,98839.91
2018-02-18T22:11:57.272Z,98841.33
2018-02-18T22:14:26.064Z,98837.09
2018-02-18T22:16:55.043Z,98830.98
2018-02-18T22:19:23.352Z,98820.94
2018-02-18T22:21:51.712Z,98819.18
2018-02-18T22:24:20.113Z,98825.72
2018-02-18T22:26:48.430Z,98829.84
2018-02-18T22:29:17.392Z,98828.36
2018-02-18T22:31:45.707Z,98836.36
2018-02-18T22:34:14.169Z,98817.33
2018-02-18T22:36:43.037Z,98829.89
2018-02-18T22:39:11.348Z,98827.20
2018-02-18T22:41:39.745Z,98826.24
2018-02-18T22:44:08.100Z,98820.28
2018-02-18T22:46:36.408Z,98819.78
2018-02-18T22:49:05.004Z,98814.41
2018-02-18T22:51:33.344Z,98814.17
2018-02-18T22:54:01.692Z,98809.68
2018-02-18T22:56:30.296Z,98811.42
2018-02-18T22:58:58.661Z,98810.94
2018-02-18T23:01:27.750Z,98807.34
2018-02-18T23:03:57.499Z,98812.06
2018-02-18T23:06:25.892Z,98805.91
2018-02-18T23:08:54.228Z,98812.20
2018-02-18T23:11:23.300Z,98808.94
2018-02-18T23:13:51.648Z,98805.58
2018-02-18T23:16:20.043Z,98811.86
2018-02-18T23:18:48.347Z,98810.13
2018-02-18T23:21:16.721Z,98806.91
2018-02-18T23:23:45.324Z,98804.91
2018-02-18T23:26:14.404Z,98801.62
2018-02-18T23:28:42.848Z,98794.33
2018-02-18T23:31:11.156Z,98793.98
2018-02-18T23:33:39.484Z,98799.28
2018-02-18T23:36:07.851Z,98793.76
2018-02-18T23:38:36.156Z,98792.97
2018-02-18T23:41:04.465Z,98795.47
2018-02-18T23:43:32.832Z,98794.33
2018-02-18T23:46:01.159Z,98795.11
2018-02-18T23:48:29.480Z,98791.48
2018-02-18T23:50:57.888Z,98792.34
2018-02-18T23:53:26.208Z,98786.77
2018-02-18T23:55:54.519Z,98782.55
2018-02-18T23:58:22.880Z,98779.42
